createdAt,value
2022-11-25T00:00:51.543Z,1.74
2022-11-25T00:03:19.595Z,1.81
2022-11-25T00:05:47.655Z,1.67
2022-11-25T00:08:15.579Z,1.56
2022-11-25T00:10:43.480Z,1.51
2022-11-25T00:13:11.360Z,1.49
2022-11-25T00:15:39.265Z,1.42
2022-11-25T00:18:08.661Z,1.35
2022-11-25T00:20:38.496Z,1.15
2022-11-25T00:23:06.347Z,1.04
2022-11-25T00:25:34.261Z,1.07
2022-11-25T00:28:02.230Z,1.03
2022-11-25T00:30:30.148Z,1.02
2022-11-25T00:32:58.107Z,0.94
2022-11-25T00:35:27.376Z,1.05
2022-11-25T00:37:55.248Z,1.09
2022-11-25T00:40:23.150Z,1.12
2022-11-25T00:43:08.343Z,0.94
2022-11-25T00:45:36.329Z,0.86
2022-11-25T00:48:04.329Z,0.77
2022-11-25T00:50:33.625Z,0.62
2022-11-25T00:53:01.551Z,0.68
2022-11-25T00:55:49.887Z,0.60
2022-11-25T00:58:17.800Z,0.75
2022-11-25T01:00:45.719Z,0.85
2022-11-25T01:03:13.647Z,0.82
2022-11-25T01:05:42.927Z,0.69
2022-11-25T01:08:10.842Z,0.61
2022-11-25T01:10:38.728Z,0.57
2022-11-25T01:13:06.635Z,0.52
2022-11-25T01:15:37.979Z,0.46
2022-11-25T01:18:05.972Z,0.44
2022-11-25T01:20:33.943Z,0.48
2022-11-25T01:23:03.234Z,0.29
2022-11-25T01:25:31.150Z,0.40
2022-11-25T01:27:59.024Z,0.27
2022-11-25T01:30:27.003Z,0.23
2022-11-25T01:32:54.895Z,0.12
2022-11-25T01:35:22.872Z,-0.01
2022-11-25T01:37:50.751Z,0.11
2022-11-25T01:40:20.039Z,0.05
2022-11-25T01:42:48.423Z,0.06
2022-11-25T01:45:36.367Z,0.25
2022-11-25T01:48:08.284Z,0.34
2022-11-25T01:50:36.595Z,0.33
2022-11-25T01:53:06.772Z,0.27
2022-11-25T01:55:36.931Z,0.21
2022-11-25T01:58:06.671Z,0.28
2022-11-25T02:00:34.776Z,0.13
2022-11-25T02:03:02.707Z,0.41
2022-11-25T02:05:34.585Z,0.10
2022-11-25T02:08:02.526Z,-0.01
2022-11-25T02:10:32.309Z,-0.20
2022-11-25T02:13:01.749Z,-0.27
2022-11-25T02:15:31.022Z,-0.24
2022-11-25T02:17:58.944Z,-0.07
2022-11-25T02:20:27.028Z,0.19
2022-11-25T02:23:01.024Z,0.12
2022-11-25T02:25:31.710Z,0.18
2022-11-25T02:28:04.577Z,0.05
2022-11-25T02:30:32.624Z,0.05
2022-11-25T02:33:01.600Z,-0.17
2022-11-25T02:35:32.612Z,-0.31
2022-11-25T02:38:05.348Z,-0.37
2022-11-25T02:40:36.640Z,-0.43
2022-11-25T02:43:04.888Z,-0.49
2022-11-25T02:45:43.698Z,-0.55
2022-11-25T02:48:11.691Z,-0.58
2022-11-25T02:50:39.640Z,-0.52
2022-11-25T02:53:08.207Z,-0.44
2022-11-25T02:55:37.484Z,-0.48
2022-11-25T02:58:05.508Z,-0.54
2022-11-25T03:00:33.397Z,-0.61
2022-11-25T03:03:01.376Z,-0.66
2022-11-25T03:05:29.329Z,-0.82
2022-11-25T03:07:57.279Z,-0.75
2022-11-25T03:10:25.357Z,-0.57
2022-11-25T03:12:54.729Z,-0.61
2022-11-25T03:15:23.016Z,-0.64
2022-11-25T03:17:50.971Z,-0.64
2022-11-25T03:20:19.181Z,-0.52
2022-11-25T03:22:47.148Z,-0.54
2022-11-25T03:25:15.539Z,-0.66
2022-11-25T03:27:43.835Z,-0.73
2022-11-25T03:30:15.360Z,-0.81
2022-11-25T03:32:43.317Z,-0.93
2022-11-25T03:35:12.595Z,-0.85
2022-11-25T03:37:40.604Z,-0.92
2022-11-25T03:40:10.340Z,-0.83
2022-11-25T03:42:38.438Z,-0.87
2022-11-25T03:45:07.463Z,-0.91
2022-11-25T03:47:36.726Z,-0.93
2022-11-25T03:50:05.020Z,-0.93
2022-11-25T03:52:32.939Z,-0.95
2022-11-25T03:55:00.852Z,-0.97
2022-11-25T03:57:28.767Z,-1.04
2022-11-25T03:59:56.672Z,-1.15
2022-11-25T04:02:26.105Z,-1.14
2022-11-25T04:04:55.512Z,-1.16
2022-11-25T04:07:23.505Z,-1.03
2022-11-25T04:09:51.486Z,-0.94
2022-11-25T04:12:37.066Z,-1.02
2022-11-25T04:15:06.019Z,-0.96
2022-11-25T04:17:33.935Z,-0.99
2022-11-25T04:20:03.195Z,-1.04
2022-11-25T04:22:31.081Z,-1.12
2022-11-25T04:24:59.020Z,-1.12
2022-11-25T04:27:26.918Z,-1.07
2022-11-25T04:29:54.819Z,-1.12
2022-11-25T04:32:22.713Z,-1.07
2022-11-25T04:34:50.634Z,-1.11
2022-11-25T04:37:20.182Z,-1.21
2022-11-25T04:39:48.139Z,-1.20
2022-11-25T04:42:34.682Z,-1.22
2022-11-25T04:47:52.165Z,-1.15
2022-11-25T04:50:22.092Z,-1.16
2022-11-25T04:52:51.547Z,-1.21
2022-11-25T04:55:19.465Z,-1.25
2022-11-25T04:57:47.385Z,-1.26
2022-11-25T05:00:14.942Z,-1.31
2022-11-25T05:02:42.938Z,-1.39
2022-11-25T05:05:11.328Z,-1.43
2022-11-25T05:07:39.579Z,-1.39
2022-11-25T05:10:09.959Z,-1.43
2022-11-25T05:12:38.229Z,-1.46
2022-11-25T05:15:08.017Z,-1.41
2022-11-25T05:17:36.368Z,-1.19
2022-11-25T05:20:05.878Z,-1.33
2022-11-25T05:22:34.829Z,-1.38
2022-11-25T05:25:05.620Z,-1.40
2022-11-25T05:27:34.967Z,-1.51
2022-11-25T05:30:02.923Z,-1.53
2022-11-25T05:32:30.840Z,-1.61
2022-11-25T05:34:58.712Z,-1.61
2022-11-25T05:37:27.743Z,-1.65
2022-11-25T05:39:55.639Z,-1.60
2022-11-25T05:42:23.563Z,-1.67
2022-11-25T05:44:52.834Z,-1.71
2022-11-25T05:47:20.740Z,-1.77
2022-11-25T05:49:48.663Z,-1.85
2022-11-25T05:52:16.500Z,-1.89
2022-11-25T05:54:44.423Z,-1.94
2022-11-25T05:57:12.283Z,-1.96
2022-11-25T05:59:40.178Z,-1.98
2022-11-25T06:02:09.491Z,-1.83
2022-11-25T06:04:37.881Z,-1.87
2022-11-25T06:07:06.178Z,-1.80
2022-11-25T06:09:34.233Z,-1.92
2022-11-25T06:12:02.120Z,-1.96
2022-11-25T06:14:30.262Z,-1.88
2022-11-25T06:16:58.198Z,-1.87
2022-11-25T06:19:27.489Z,-1.73
2022-11-25T06:21:55.463Z,-1.63
2022-11-25T06:24:23.414Z,-1.83
2022-11-25T06:26:55.929Z,-1.87
2022-11-25T06:29:23.817Z,-1.90
2022-11-25T06:31:51.723Z,-1.92
2022-11-25T06:34:19.611Z,-1.74
2022-11-25T06:36:50.017Z,-1.73
2022-11-25T06:39:19.673Z,-1.88
2022-11-25T06:41:48.249Z,-1.87
2022-11-25T06:44:16.265Z,-1.74
2022-11-25T06:46:44.253Z,-1.68
2022-11-25T06:49:12.238Z,-1.67
2022-11-25T06:51:40.138Z,-1.59
2022-11-25T06:54:10.392Z,-1.47
2022-11-25T06:56:38.398Z,-1.61
2022-11-25T06:59:06.392Z,-1.65
2022-11-25T07:01:34.703Z,-1.49
2022-11-25T07:04:05.176Z,-1.22
2022-11-25T07:06:33.582Z,-1.31
2022-11-25T07:09:01.961Z,-1.26
2022-11-25T07:11:32.481Z,-1.37
2022-11-25T07:14:02.061Z,-1.36
2022-11-25T07:16:30.423Z,-1.41
2022-11-25T07:19:03.088Z,-1.40
2022-11-25T07:21:32.106Z,-1.26
2022-11-25T07:24:01.205Z,-1.22
2022-11-25T07:26:32.679Z,-0.83
2022-11-25T07:29:01.864Z,-0.62
2022-11-25T07:31:33.010Z,-0.45
2022-11-25T07:34:03.049Z,-0.38
2022-11-25T07:36:31.989Z,-0.31
2022-11-25T07:39:01.880Z,-0.11
2022-11-25T07:41:31.282Z,-0.20
2022-11-25T07:44:00.423Z,-0.20
2022-11-25T07:46:30.675Z,0.00
2022-11-25T07:49:00.053Z,0.13
2022-11-25T07:51:29.799Z,0.31
2022-11-25T07:53:59.166Z,0.27
2022-11-25T07:56:27.317Z,0.43
2022-11-25T07:58:57.199Z,0.82
2022-11-25T08:01:25.478Z,0.82
2022-11-25T08:03:53.414Z,0.89
2022-11-25T08:06:23.280Z,1.02
2022-11-25T08:08:52.863Z,1.25
2022-11-25T08:11:22.224Z,1.10
2022-11-25T08:13:50.403Z,1.09
2022-11-25T08:16:21.689Z,1.23
2022-11-25T08:18:50.000Z,1.27
2022-11-25T08:21:19.161Z,1.59
2022-11-25T08:23:48.869Z,1.80
2022-11-25T08:26:20.289Z,1.95
2022-11-25T08:28:48.380Z,2.08
2022-11-25T08:31:18.117Z,1.94
2022-11-25T08:33:48.433Z,1.98
2022-11-25T08:36:16.870Z,2.15
2022-11-25T08:38:45.836Z,2.19
2022-11-25T08:41:15.160Z,2.25
2022-11-25T08:43:43.418Z,2.54
2022-11-25T08:46:13.845Z,2.50
2022-11-25T08:48:42.414Z,2.63
2022-11-25T08:51:14.697Z,2.74
2022-11-25T08:53:43.505Z,2.87
2022-11-25T08:56:11.629Z,3.11
2022-11-25T08:58:39.788Z,3.29
2022-11-25T09:01:08.281Z,3.58
2022-11-25T09:03:37.830Z,3.75
2022-11-25T09:06:08.946Z,3.90
2022-11-25T09:08:39.698Z,3.97
2022-11-25T09:11:08.060Z,4.23
2022-11-25T09:13:36.265Z,4.31
2022-11-25T09:16:04.576Z,4.36
2022-11-25T09:18:33.064Z,4.32
2022-11-25T09:21:00.993Z,4.63
2022-11-25T09:23:28.932Z,4.81
2022-11-25T09:25:59.424Z,5.13
2022-11-25T09:28:28.110Z,5.45
2022-11-25T09:30:56.106Z,5.39
2022-11-25T09:33:24.256Z,5.83
2022-11-25T09:35:52.139Z,6.03
2022-11-25T09:38:20.146Z,6.37
2022-11-25T09:40:52.518Z,6.53
2022-11-25T09:43:49.913Z,6.69
2022-11-25T09:46:46.034Z,6.95
2022-11-25T09:49:30.830Z,7.34
2022-11-25T09:52:04.770Z,7.46
2022-11-25T09:54:37.033Z,7.62
2022-11-25T09:57:16.973Z,7.80
2022-11-25T09:59:49.586Z,6.99
2022-11-25T10:02:22.897Z,6.91
2022-11-25T10:04:54.717Z,6.71
2022-11-25T10:07:28.758Z,7.01
2022-11-25T10:09:57.617Z,6.87
2022-11-25T10:12:27.661Z,7.18
2022-11-25T10:15:01.007Z,7.54
2022-11-25T10:17:34.474Z,7.74
2022-11-25T10:20:04.744Z,7.77
2022-11-25T10:22:34.646Z,7.33
2022-11-25T10:25:07.405Z,7.71
2022-11-25T10:27:43.273Z,8.04
2022-11-25T10:30:19.472Z,8.42
2022-11-25T10:32:51.133Z,8.58
2022-11-25T10:35:25.178Z,8.43
2022-11-25T10:37:55.471Z,8.24
2022-11-25T10:40:23.861Z,8.04
2022-11-25T10:42:51.795Z,8.19
2022-11-25T10:45:24.213Z,8.30
2022-11-25T10:48:08.945Z,7.90
2022-11-25T10:50:48.275Z,8.10
2022-11-25T10:53:18.391Z,8.01
2022-11-25T10:55:59.257Z,8.05
2022-11-25T10:58:31.280Z,7.84
2022-11-25T11:01:15.011Z,7.67
2022-11-25T11:03:45.217Z,7.76
2022-11-25T11:06:40.439Z,7.71
2022-11-25T11:09:32.216Z,8.02
2022-11-25T11:12:10.377Z,8.02
2022-11-25T11:14:38.640Z,7.54
2022-11-25T11:17:10.158Z,7.67
2022-11-25T11:19:39.248Z,7.77
2022-11-25T11:22:17.468Z,7.74
2022-11-25T11:24:45.418Z,8.07
2022-11-25T11:27:20.928Z,8.24
2022-11-25T11:29:49.121Z,8.30
2022-11-25T11:32:24.930Z,8.30
2022-11-25T11:35:02.960Z,8.29
2022-11-25T11:37:42.397Z,8.14
2022-11-25T11:40:26.172Z,8.21
2022-11-25T11:43:02.084Z,8.21
2022-11-25T11:45:50.020Z,8.21
2022-11-25T11:48:28.698Z,8.22
2022-11-25T11:51:04.395Z,8.54
2022-11-25T11:53:38.238Z,8.42
2022-11-25T11:56:34.358Z,8.73
2022-11-25T11:59:07.829Z,8.76
2022-11-25T12:01:46.531Z,8.35
2022-11-25T12:04:22.488Z,8.08
2022-11-25T12:07:00.086Z,7.92
2022-11-25T12:09:30.436Z,7.78
2022-11-25T12:12:03.899Z,7.81
2022-11-25T12:14:36.724Z,7.85
2022-11-25T12:17:08.982Z,7.99
2022-11-25T12:19:42.707Z,8.18
2022-11-25T12:22:15.855Z,8.61
2022-11-25T12:24:47.072Z,8.48
2022-11-25T12:27:16.963Z,8.46
2022-11-25T12:29:49.187Z,8.13
2022-11-25T12:32:43.108Z,7.81
2022-11-25T12:35:20.486Z,7.79
2022-11-25T12:37:52.222Z,7.70
2022-11-25T12:40:25.788Z,7.53
2022-11-25T12:42:54.819Z,7.45
2022-11-25T12:45:24.364Z,7.42
2022-11-25T12:47:52.835Z,7.35
2022-11-25T12:50:41.738Z,7.38
2022-11-25T12:53:13.417Z,7.32
2022-11-25T12:55:42.240Z,7.37
2022-11-25T12:58:42.057Z,7.37
2022-11-25T13:01:30.486Z,7.38
2022-11-25T13:04:29.603Z,7.28
2022-11-25T13:07:11.686Z,7.32
2022-11-25T13:09:55.713Z,7.32
2022-11-25T13:12:32.698Z,7.31
2022-11-25T13:15:19.242Z,7.24
2022-11-25T13:17:50.024Z,7.23
2022-11-25T13:20:42.278Z,7.29
2022-11-25T13:23:43.310Z,7.37
2022-11-25T13:26:50.212Z,7.35
2022-11-25T13:30:03.282Z,7.38
2022-11-25T13:32:42.202Z,7.27
2022-11-25T13:35:38.663Z,7.29
2022-11-25T13:38:49.229Z,7.25
2022-11-25T13:41:26.964Z,7.25
2022-11-25T13:44:02.159Z,7.13
2022-11-25T13:46:35.993Z,7.14
2022-11-25T13:49:04.130Z,7.13
2022-11-25T13:51:32.120Z,7.15
2022-11-25T13:54:02.747Z,7.08
2022-11-25T13:56:32.640Z,6.96
2022-11-25T13:59:36.835Z,6.92
2022-11-25T14:02:42.079Z,6.85
2022-11-25T14:05:19.929Z,6.78
2022-11-25T14:07:55.139Z,6.80
2022-11-25T14:10:36.211Z,6.85
2022-11-25T14:13:16.216Z,6.69
2022-11-25T14:15:52.642Z,6.70
2022-11-25T14:19:12.400Z,6.56
2022-11-25T14:21:49.696Z,6.43
2022-11-25T14:24:26.192Z,6.38
2022-11-25T14:26:56.656Z,6.33
2022-11-25T14:29:27.632Z,6.29
2022-11-25T14:31:59.012Z,6.21
2022-11-25T14:34:31.355Z,6.16
2022-11-25T14:37:02.690Z,6.14
2022-11-25T14:39:35.343Z,6.07
2022-11-25T14:42:08.246Z,6.13
2022-11-25T14:44:40.863Z,6.02
2022-11-25T14:47:08.787Z,5.92
2022-11-25T14:49:55.409Z,5.87
2022-11-25T14:52:34.726Z,5.79
2022-11-25T14:55:04.188Z,5.84
2022-11-25T14:57:35.832Z,5.86
2022-11-25T15:00:06.925Z,5.82
2022-11-25T15:02:36.698Z,5.77
2022-11-25T15:05:14.954Z,5.62
2022-11-25T15:07:43.825Z,5.53
2022-11-25T15:10:30.076Z,5.33
2022-11-25T15:12:59.531Z,5.30
2022-11-25T15:15:28.114Z,5.17
2022-11-25T15:17:56.052Z,5.20
2022-11-25T15:20:24.536Z,5.07
2022-11-25T15:22:53.770Z,4.89
2022-11-25T15:25:21.982Z,4.72
2022-11-25T15:27:52.469Z,4.70
2022-11-25T15:30:24.395Z,4.68
2022-11-25T15:32:52.972Z,4.56
2022-11-25T15:35:23.620Z,4.48
2022-11-25T15:37:54.259Z,4.50
2022-11-25T15:40:36.690Z,4.50
2022-11-25T15:43:07.178Z,4.44
2022-11-25T15:45:44.324Z,4.27
2022-11-25T15:48:17.000Z,4.30
2022-11-25T15:50:44.868Z,4.28
2022-11-25T15:53:24.820Z,4.17
2022-11-25T15:55:54.925Z,4.11
2022-11-25T15:58:24.280Z,4.08
2022-11-25T16:01:04.693Z,3.89
2022-11-25T16:03:33.028Z,3.84
2022-11-25T16:06:01.906Z,3.81
2022-11-25T16:08:35.073Z,3.81
2022-11-25T16:11:19.294Z,3.72
2022-11-25T16:13:48.044Z,3.64
2022-11-25T16:16:20.892Z,3.62
2022-11-25T16:18:55.767Z,3.58
2022-11-25T16:21:25.536Z,3.34
2022-11-25T16:23:55.216Z,3.28
2022-11-25T16:26:25.323Z,3.28
2022-11-25T16:28:55.312Z,3.28
2022-11-25T16:31:25.399Z,3.31
2022-11-25T16:33:55.445Z,3.20
2022-11-25T16:36:23.417Z,3.19
2022-11-25T16:38:54.302Z,2.96
2022-11-25T16:41:24.421Z,2.90
2022-11-25T16:43:52.656Z,2.88
2022-11-25T16:46:21.239Z,2.67
2022-11-25T16:48:52.333Z,2.67
2022-11-25T16:51:21.588Z,2.66
2022-11-25T16:53:49.935Z,2.67
2022-11-25T16:56:22.000Z,2.60
2022-11-25T16:58:49.956Z,2.57
2022-11-25T17:01:19.107Z,2.52
2022-11-25T17:03:47.113Z,2.50
2022-11-25T17:06:21.858Z,2.53
2022-11-25T17:08:50.706Z,2.51
2022-11-25T17:11:20.859Z,2.53
2022-11-25T17:13:51.091Z,2.42
2022-11-25T17:16:21.829Z,2.44
2022-11-25T17:18:50.082Z,2.49
2022-11-25T17:21:19.490Z,2.60
2022-11-25T17:23:52.432Z,2.65
2022-11-25T17:26:23.272Z,2.54
2022-11-25T17:28:54.446Z,2.47
2022-11-25T17:31:22.941Z,2.50
2022-11-25T17:33:51.164Z,2.56
2022-11-25T17:36:20.606Z,2.56
2022-11-25T17:38:49.102Z,2.79
2022-11-25T17:41:18.465Z,2.76
2022-11-25T17:43:47.690Z,2.59
2022-11-25T17:46:17.290Z,2.48
2022-11-25T17:48:45.377Z,2.45
2022-11-25T17:51:14.663Z,2.55
2022-11-25T17:53:44.893Z,2.55
2022-11-25T17:56:19.209Z,2.80
2022-11-25T17:58:47.243Z,2.75
2022-11-25T18:01:15.340Z,3.12
2022-11-25T18:03:43.325Z,2.96
2022-11-25T18:06:11.294Z,2.89
2022-11-25T18:08:39.231Z,2.91
2022-11-25T18:11:08.787Z,3.01
2022-11-25T18:13:38.707Z,2.95
2022-11-25T18:16:07.385Z,3.15
2022-11-25T18:18:35.448Z,3.15
2022-11-25T18:21:03.488Z,2.93
2022-11-25T18:23:31.380Z,2.83
2022-11-25T18:26:01.911Z,2.87
2022-11-25T18:28:32.318Z,2.84
2022-11-25T18:31:03.809Z,2.88
2022-11-25T18:33:32.072Z,2.86
2022-11-25T18:36:00.000Z,2.80
2022-11-25T18:38:27.929Z,2.88
2022-11-25T18:40:56.403Z,2.79
2022-11-25T18:43:25.354Z,2.77
2022-11-25T18:45:55.673Z,2.69
2022-11-25T18:48:25.247Z,2.93
2022-11-25T18:50:54.990Z,2.89
2022-11-25T18:53:23.663Z,2.88
2022-11-25T18:55:51.797Z,3.06
2022-11-25T18:58:21.433Z,3.00
2022-11-25T19:00:50.472Z,3.09
2022-11-25T19:03:21.610Z,3.01
2022-11-25T19:05:50.066Z,2.98
2022-11-25T19:08:18.633Z,2.76
2022-11-25T19:10:48.027Z,2.69
2022-11-25T19:13:18.127Z,2.63
2022-11-25T19:15:46.398Z,2.57
2022-11-25T19:18:17.268Z,2.61
2022-11-25T19:20:48.550Z,2.63
2022-11-25T19:23:21.291Z,2.87
2022-11-25T19:25:49.879Z,3.03
2022-11-25T19:28:18.247Z,3.19
2022-11-25T19:30:47.731Z,3.19
2022-11-25T19:33:21.599Z,3.02
2022-11-25T19:35:50.885Z,2.94
2022-11-25T19:38:25.158Z,2.87
2022-11-25T19:40:53.055Z,3.15
2022-11-25T19:43:22.625Z,2.93
2022-11-25T19:45:50.750Z,2.85
2022-11-25T19:48:20.171Z,2.90
2022-11-25T19:50:51.974Z,2.91
2022-11-25T19:53:22.432Z,2.87
2022-11-25T19:55:50.360Z,2.87
2022-11-25T19:58:18.401Z,2.86
2022-11-25T20:00:47.363Z,2.92
2022-11-25T20:03:19.521Z,2.88
2022-11-25T20:05:48.863Z,2.86
2022-11-25T20:08:21.923Z,2.85
2022-11-25T20:10:50.187Z,2.85
2022-11-25T20:13:18.418Z,2.93
2022-11-25T20:15:46.720Z,2.98
2022-11-25T20:18:18.309Z,2.86
2022-11-25T20:20:47.576Z,2.79
2022-11-25T20:23:25.896Z,2.83
2022-11-25T20:25:53.860Z,2.87
2022-11-25T20:28:23.177Z,2.94
2022-11-25T20:30:51.412Z,3.17
2022-11-25T20:33:24.075Z,3.06
2022-11-25T20:35:54.613Z,2.86
2022-11-25T20:38:25.848Z,2.74
2022-11-25T20:40:55.530Z,2.74
2022-11-25T20:43:29.297Z,2.64
2022-11-25T20:45:57.743Z,2.67
2022-11-25T20:48:25.999Z,2.65
2022-11-25T20:50:54.062Z,2.64
2022-11-25T20:53:23.408Z,2.72
2022-11-25T20:55:52.697Z,2.88
2022-11-25T20:58:22.859Z,2.91
2022-11-25T21:00:57.075Z,2.87
2022-11-25T21:03:25.897Z,2.80
2022-11-25T21:05:54.924Z,2.86
2022-11-25T21:08:25.300Z,2.85
2022-11-25T21:10:56.600Z,2.95
2022-11-25T21:13:26.108Z,3.11
2022-11-25T21:15:54.454Z,2.97
2022-11-25T21:18:23.124Z,2.96
2022-11-25T21:20:52.324Z,3.05
2022-11-25T21:23:21.993Z,2.93
2022-11-25T21:25:50.893Z,2.93
2022-11-25T21:28:22.117Z,3.13
2022-11-25T21:30:50.057Z,2.97
2022-11-25T21:33:18.028Z,3.31
2022-11-25T21:35:50.429Z,3.66
2022-11-25T21:38:20.031Z,3.88
2022-11-25T21:40:49.731Z,4.01
2022-11-25T21:43:22.169Z,4.23
2022-11-25T21:45:51.656Z,4.38
2022-11-25T21:48:21.051Z,4.50
2022-11-25T21:50:49.171Z,4.41
2022-11-25T21:53:17.208Z,4.48
2022-11-25T21:55:45.267Z,4.35
2022-11-25T21:58:18.499Z,4.31
2022-11-25T22:00:49.980Z,4.31
2022-11-25T22:03:19.408Z,4.32
2022-11-25T22:05:47.824Z,4.26
2022-11-25T22:08:15.955Z,4.22
2022-11-25T22:10:47.064Z,4.12
2022-11-25T22:13:17.174Z,4.24
2022-11-25T22:15:45.683Z,4.27
2022-11-25T22:18:20.139Z,4.32
2022-11-25T22:20:53.107Z,4.37
2022-11-25T22:23:22.093Z,4.30
2022-11-25T22:25:51.099Z,4.40
2022-11-25T22:28:21.360Z,4.30
2022-11-25T22:30:51.394Z,4.38
2022-11-25T22:33:21.112Z,4.38
2022-11-25T22:35:50.291Z,4.51
2022-11-25T22:38:19.620Z,4.45
2022-11-25T22:40:49.129Z,4.29
2022-11-25T22:43:19.089Z,4.29
2022-11-25T22:45:47.319Z,4.22
2022-11-25T22:48:16.986Z,4.27
2022-11-25T22:50:47.001Z,4.24
2022-11-25T22:53:17.795Z,4.29
2022-11-25T22:55:46.424Z,4.38
2022-11-25T22:58:15.496Z,4.34
2022-11-25T23:00:45.362Z,4.29
2022-11-25T23:03:16.926Z,4.42
2022-11-25T23:05:46.791Z,4.44
2022-11-25T23:08:18.646Z,4.39
2022-11-25T23:10:46.877Z,4.34
2022-11-25T23:13:15.929Z,4.38
2022-11-25T23:15:47.996Z,4.39
2022-11-25T23:18:19.009Z,4.36
2022-11-25T23:20:49.484Z,4.15
2022-11-25T23:23:20.005Z,4.32
2022-11-25T23:25:48.698Z,4.20
2022-11-25T23:28:17.135Z,4.14
2022-11-25T23:30:48.600Z,4.16
2022-11-25T23:33:21.303Z,4.25
2022-11-25T23:35:50.649Z,3.98
2022-11-25T23:38:22.412Z,3.94
2022-11-25T23:40:50.383Z,3.99
2022-11-25T23:43:18.652Z,3.90
2022-11-25T23:45:50.203Z,4.12
2022-11-25T23:48:19.053Z,4.24
2022-11-25T23:50:47.265Z,4.28
2022-11-25T23:53:22.881Z,4.19
2022-11-25T23:55:51.129Z,4.18
2022-11-25T23:58:20.563Z,4.15
